createdAt,value
2024-01-05T00:03:05.204Z,3.70
2024-01-05T00:05:32.378Z,3.70
2024-01-05T00:07:59.419Z,3.70
2024-01-05T00:10:26.362Z,3.70
2024-01-05T00:12:53.330Z,3.80
2024-01-05T00:15:21.338Z,4.30
2024-01-05T00:17:48.434Z,4.30
2024-01-05T00:20:15.654Z,3.70
2024-01-05T00:22:42.610Z,3.70
2024-01-05T00:25:09.755Z,3.80
2024-01-05T00:27:36.749Z,3.70
2024-01-05T00:30:05.939Z,3.70
2024-01-05T00:32:33.124Z,3.70
2024-01-05T00:35:00.067Z,3.70
2024-01-05T00:37:26.865Z,3.70
2024-01-05T00:39:53.772Z,3.70
2024-01-05T00:42:20.774Z,3.70
2024-01-05T00:44:47.891Z,3.70
2024-01-05T00:47:14.818Z,3.80
2024-01-05T00:49:41.915Z,3.70
2024-01-05T00:52:08.858Z,3.70
2024-01-05T00:54:35.869Z,3.60
2024-01-05T00:57:02.849Z,3.60
2024-01-05T00:59:29.832Z,3.60
2024-01-05T01:01:56.688Z,3.60
2024-01-05T01:04:24.099Z,3.60
2024-01-05T01:06:51.896Z,3.80
2024-01-05T01:09:18.913Z,3.60
2024-01-05T01:11:45.789Z,3.60
2024-01-05T01:14:12.637Z,3.60
2024-01-05T01:16:39.738Z,3.60
2024-01-05T01:19:06.849Z,3.60
2024-01-05T01:21:34.117Z,3.60
2024-01-05T01:24:01.209Z,3.60
2024-01-05T01:26:28.130Z,3.60
2024-01-05T01:28:55.034Z,3.60
2024-01-05T01:31:21.920Z,3.60
2024-01-05T01:33:48.875Z,3.60
2024-01-05T01:36:15.979Z,3.60
2024-01-05T01:38:42.868Z,3.80
2024-01-05T01:41:09.714Z,3.60
2024-01-05T01:43:36.686Z,3.60
2024-01-05T01:46:03.682Z,3.60
2024-01-05T01:48:31.801Z,3.60
2024-01-05T01:51:00.215Z,3.60
2024-01-05T01:53:28.989Z,3.60
2024-01-05T01:55:56.912Z,3.60
2024-01-05T01:58:24.834Z,3.60
2024-01-05T02:00:52.666Z,3.60
2024-01-05T02:03:20.387Z,3.60
2024-01-05T02:05:48.845Z,3.60
2024-01-05T02:08:16.344Z,3.60
2024-01-05T02:10:43.338Z,3.60
2024-01-05T02:13:10.597Z,3.60
2024-01-05T02:15:37.454Z,3.60
2024-01-05T02:18:14.899Z,3.60
2024-01-05T02:20:46.177Z,3.60
2024-01-05T02:23:27.873Z,3.60
2024-01-05T02:25:59.029Z,3.60
2024-01-05T02:28:26.354Z,3.60
2024-01-05T02:30:57.391Z,3.60
2024-01-05T02:33:25.474Z,3.60
2024-01-05T02:35:52.745Z,3.60
2024-01-05T02:38:19.745Z,3.60
2024-01-05T02:40:46.622Z,3.60
2024-01-05T02:43:13.541Z,3.60
2024-01-05T02:45:40.609Z,3.60
2024-01-05T02:48:08.458Z,3.60
2024-01-05T02:50:35.454Z,3.60
2024-01-05T02:53:02.500Z,3.60
2024-01-05T02:55:29.389Z,3.60
2024-01-05T02:57:56.348Z,3.70
2024-01-05T03:00:23.466Z,3.70
2024-01-05T03:02:50.452Z,3.60
2024-01-05T03:05:17.402Z,3.70
2024-01-05T03:07:44.746Z,3.60
2024-01-05T03:10:11.992Z,3.70
2024-01-05T03:12:38.887Z,3.70
2024-01-05T03:15:06.425Z,3.60
2024-01-05T03:17:33.586Z,3.70
2024-01-05T03:20:00.690Z,3.70
2024-01-05T03:22:31.261Z,3.70
2024-01-05T03:24:59.045Z,3.60
2024-01-05T03:27:25.960Z,3.60
2024-01-05T03:29:53.065Z,3.60
2024-01-05T03:32:20.041Z,3.60
2024-01-05T03:34:46.984Z,3.60
2024-01-05T03:37:13.852Z,3.60
2024-01-05T03:39:40.741Z,3.70
2024-01-05T03:42:07.772Z,3.60
2024-01-05T03:44:34.638Z,3.60
2024-01-05T03:47:01.627Z,3.70
2024-01-05T03:49:29.164Z,3.70
2024-01-05T03:51:56.114Z,3.70
2024-01-05T03:54:23.073Z,4.00
2024-01-05T03:56:49.979Z,3.70
2024-01-05T03:59:16.857Z,3.70
2024-01-05T04:01:48.431Z,3.70
2024-01-05T04:04:15.425Z,3.60
2024-01-05T04:06:43.514Z,3.70
2024-01-05T04:09:13.571Z,3.70
2024-01-05T04:11:40.961Z,3.70
2024-01-05T04:14:08.668Z,3.70
2024-01-05T04:16:36.163Z,3.70
2024-01-05T04:19:03.737Z,4.00
2024-01-05T04:21:31.480Z,3.80
2024-01-05T04:23:58.719Z,3.70
2024-01-05T04:26:26.440Z,3.90
2024-01-05T04:28:53.699Z,3.80
2024-01-05T04:31:20.650Z,3.80
2024-01-05T04:33:47.844Z,3.80
2024-01-05T04:36:18.060Z,3.90
2024-01-05T04:38:45.364Z,3.80
2024-01-05T04:41:15.149Z,3.80
2024-01-05T04:43:42.068Z,3.90
2024-01-05T04:46:09.405Z,3.90
2024-01-05T04:48:36.794Z,3.90
2024-01-05T04:51:04.799Z,3.90
2024-01-05T04:53:31.752Z,3.90
2024-01-05T04:55:58.755Z,3.90
2024-01-05T04:58:25.751Z,3.90
2024-01-05T05:00:52.945Z,3.90
2024-01-05T05:03:19.993Z,3.90
2024-01-05T05:05:47.346Z,3.90
2024-01-05T05:08:16.071Z,3.90
2024-01-05T05:10:43.308Z,3.90
2024-01-05T05:13:10.872Z,3.90
2024-01-05T05:15:39.143Z,3.90
2024-01-05T05:18:06.390Z,4.00
2024-01-05T05:20:34.108Z,3.90
2024-01-05T05:23:01.122Z,4.10
2024-01-05T05:25:28.075Z,4.00
2024-01-05T05:27:55.226Z,4.10
2024-01-05T05:30:22.495Z,4.00
2024-01-05T05:32:49.597Z,4.10
2024-01-05T05:35:16.696Z,4.10
2024-01-05T05:37:43.698Z,4.00
2024-01-05T05:40:12.095Z,4.10
2024-01-05T05:42:39.124Z,4.00
2024-01-05T05:45:06.485Z,4.00
2024-01-05T05:47:33.524Z,4.00
2024-01-05T05:50:00.482Z,4.20
2024-01-05T05:52:29.725Z,4.10
2024-01-05T05:54:57.632Z,4.10
2024-01-05T05:57:24.549Z,4.10
2024-01-05T05:59:52.742Z,4.30
2024-01-05T06:02:19.931Z,4.20
2024-01-05T06:04:46.981Z,4.10
2024-01-05T06:07:13.915Z,4.10
2024-01-05T06:09:40.870Z,4.10
2024-01-05T06:12:08.351Z,4.10
2024-01-05T06:14:35.185Z,4.20
2024-01-05T06:17:02.073Z,4.10
2024-01-05T06:19:29.301Z,4.10
2024-01-05T06:21:58.556Z,4.20
2024-01-05T06:24:25.806Z,4.20
2024-01-05T06:26:52.947Z,4.20
2024-01-05T06:29:19.901Z,4.20
2024-01-05T06:31:47.187Z,4.20
2024-01-05T06:34:14.413Z,4.20
2024-01-05T06:36:41.561Z,4.20
2024-01-05T06:39:08.797Z,4.50
2024-01-05T06:41:35.823Z,4.30
2024-01-05T06:44:03.618Z,4.20
2024-01-05T06:46:31.825Z,4.30
2024-01-05T06:48:58.939Z,4.30
2024-01-05T06:51:31.097Z,4.30
2024-01-05T06:54:01.045Z,4.30
2024-01-05T06:56:32.986Z,4.70
2024-01-05T06:59:05.389Z,4.30
2024-01-05T07:01:32.546Z,4.40
2024-01-05T07:03:59.565Z,4.40
2024-01-05T07:06:26.561Z,4.40
2024-01-05T07:08:53.550Z,4.40
2024-01-05T07:11:24.609Z,4.40
2024-01-05T07:13:52.097Z,4.40
2024-01-05T07:16:20.321Z,4.40
2024-01-05T07:18:48.158Z,4.50
2024-01-05T07:21:15.892Z,4.60
2024-01-05T07:23:44.155Z,4.50
2024-01-05T07:26:11.230Z,4.50
2024-01-05T07:28:39.063Z,4.50
2024-01-05T07:31:06.599Z,4.60
2024-01-05T07:33:34.097Z,4.60
2024-01-05T07:36:07.394Z,4.60
2024-01-05T07:38:35.497Z,4.60
2024-01-05T07:41:03.206Z,4.60
2024-01-05T07:43:31.353Z,4.60
2024-01-05T07:45:58.296Z,4.60
2024-01-05T07:48:25.471Z,4.70
2024-01-05T07:50:52.552Z,4.60
2024-01-05T07:53:21.697Z,4.70
2024-01-05T07:55:48.687Z,4.70
2024-01-05T07:58:15.725Z,4.90
2024-01-05T08:00:42.739Z,4.70
2024-01-05T08:03:11.406Z,4.70
2024-01-05T08:05:39.238Z,4.70
2024-01-05T08:08:06.438Z,4.70
2024-01-05T08:10:33.455Z,4.80
2024-01-05T08:13:02.432Z,4.80
2024-01-05T08:15:29.342Z,4.80
2024-01-05T08:17:56.384Z,4.80
2024-01-05T08:20:23.531Z,5.00
2024-01-05T08:22:50.483Z,5.00
2024-01-05T08:25:18.798Z,4.80
2024-01-05T08:27:47.016Z,4.80
2024-01-05T08:30:14.383Z,4.90
2024-01-05T08:32:44.693Z,4.90
2024-01-05T08:35:11.695Z,4.90
2024-01-05T08:37:39.700Z,4.90
2024-01-05T08:40:08.750Z,4.90
2024-01-05T08:42:35.886Z,5.00
2024-01-05T08:45:02.892Z,5.00
2024-01-05T08:47:31.164Z,5.00
2024-01-05T08:49:58.160Z,5.40
2024-01-05T08:52:25.191Z,5.10
2024-01-05T08:54:55.159Z,5.10
2024-01-05T08:57:22.378Z,5.10
2024-01-05T08:59:49.345Z,5.20
2024-01-05T09:02:16.333Z,5.10
2024-01-05T09:04:43.305Z,5.10
2024-01-05T09:07:10.363Z,5.10
2024-01-05T09:09:37.269Z,5.10
2024-01-05T09:12:07.516Z,5.50
2024-01-05T09:14:34.481Z,5.20
2024-01-05T09:17:01.986Z,5.20
2024-01-05T09:19:29.203Z,5.20
2024-01-05T09:21:56.413Z,5.20
2024-01-05T09:24:23.324Z,5.20
2024-01-05T09:26:50.257Z,5.20
2024-01-05T09:29:17.375Z,5.20
2024-01-05T09:31:48.994Z,5.20
2024-01-05T09:34:16.163Z,5.50
2024-01-05T09:36:43.128Z,5.20
2024-01-05T09:39:12.899Z,5.20
2024-01-05T09:41:47.379Z,5.20
2024-01-05T09:44:14.592Z,5.20
2024-01-05T09:46:42.828Z,5.40
2024-01-05T09:49:10.630Z,5.30
2024-01-05T09:51:38.331Z,5.30
2024-01-05T09:54:05.782Z,5.30
2024-01-05T09:56:33.738Z,5.30
2024-01-05T09:59:01.492Z,5.50
2024-01-05T10:01:34.550Z,5.30
2024-01-05T10:04:04.695Z,5.30
2024-01-05T10:06:32.160Z,5.40
2024-01-05T10:09:00.698Z,5.40
2024-01-05T10:11:35.198Z,5.40
2024-01-05T10:14:06.557Z,5.40
2024-01-05T10:16:42.900Z,5.50
2024-01-05T10:19:18.083Z,5.50
2024-01-05T10:21:49.689Z,5.50
2024-01-05T10:24:24.570Z,5.60
2024-01-05T10:27:13.790Z,5.60
2024-01-05T10:29:44.405Z,5.60
2024-01-05T10:32:12.974Z,5.70
2024-01-05T10:34:48.090Z,5.80
2024-01-05T10:37:20.509Z,5.80
2024-01-05T10:39:55.356Z,5.90
2024-01-05T10:42:29.333Z,6.00
2024-01-05T10:44:58.673Z,6.10
2024-01-05T10:47:30.588Z,6.20
2024-01-05T10:49:58.752Z,6.20
2024-01-05T10:52:29.288Z,6.20
2024-01-05T10:54:56.434Z,6.30
2024-01-05T10:57:25.188Z,6.30
2024-01-05T10:59:55.599Z,6.30
2024-01-05T11:02:40.634Z,6.30
2024-01-05T11:05:16.613Z,6.40
2024-01-05T11:07:44.134Z,6.40
2024-01-05T11:10:35.432Z,6.40
2024-01-05T11:13:43.119Z,6.30
2024-01-05T11:16:16.299Z,6.30
2024-01-05T11:18:57.172Z,6.30
2024-01-05T11:21:37.244Z,6.20
2024-01-05T11:24:04.777Z,6.20
2024-01-05T11:26:40.379Z,6.20
2024-01-05T11:29:13.524Z,6.20
2024-01-05T11:31:46.560Z,6.30
2024-01-05T11:34:37.732Z,6.30
2024-01-05T11:37:06.141Z,6.30
2024-01-05T11:39:49.745Z,6.40
2024-01-05T11:42:26.262Z,6.40
2024-01-05T11:44:53.772Z,6.60
2024-01-05T11:47:42.662Z,6.40
2024-01-05T11:50:29.116Z,6.50
2024-01-05T11:53:12.710Z,6.50
2024-01-05T11:55:46.265Z,6.50
2024-01-05T11:58:18.859Z,6.50
2024-01-05T12:00:48.386Z,6.60
2024-01-05T12:03:17.135Z,6.60
2024-01-05T12:05:47.141Z,6.70
2024-01-05T12:08:16.005Z,6.60
2024-01-05T12:10:43.220Z,6.60
2024-01-05T12:13:10.182Z,6.60
2024-01-05T12:15:44.209Z,6.70
2024-01-05T12:18:27.495Z,6.60
2024-01-05T12:20:59.891Z,6.60
2024-01-05T12:23:27.829Z,6.70
2024-01-05T12:26:05.746Z,6.70
2024-01-05T12:28:38.038Z,6.60
2024-01-05T12:31:07.061Z,6.80
2024-01-05T12:33:36.858Z,6.60
2024-01-05T12:36:07.208Z,6.60
2024-01-05T12:38:36.615Z,6.50
2024-01-05T12:41:17.417Z,6.60
2024-01-05T12:43:48.586Z,6.50
2024-01-05T12:46:16.472Z,6.80
2024-01-05T12:48:43.699Z,6.60
2024-01-05T12:51:13.189Z,6.50
2024-01-05T12:53:40.046Z,6.50
2024-01-05T12:56:18.784Z,6.50
2024-01-05T12:58:49.493Z,6.60
2024-01-05T13:01:21.533Z,6.60
2024-01-05T13:03:53.613Z,6.50
2024-01-05T13:06:22.783Z,6.50
2024-01-05T13:08:50.177Z,6.40
2024-01-05T13:11:21.886Z,6.60
2024-01-05T13:13:53.434Z,6.40
2024-01-05T13:16:20.845Z,6.40
2024-01-05T13:18:48.269Z,6.40
2024-01-05T13:21:15.609Z,6.40
2024-01-05T13:23:44.136Z,6.30
2024-01-05T13:26:11.341Z,6.30
2024-01-05T13:28:38.575Z,6.30
2024-01-05T13:31:06.343Z,6.50
2024-01-05T13:33:34.208Z,6.30
2024-01-05T13:36:01.390Z,6.30
2024-01-05T13:38:28.824Z,6.30
2024-01-05T13:40:55.726Z,6.30
2024-01-05T13:43:24.002Z,6.30
2024-01-05T13:45:52.912Z,6.30
2024-01-05T13:48:20.127Z,6.30
2024-01-05T13:50:47.166Z,6.30
2024-01-05T13:53:16.421Z,6.20
2024-01-05T13:55:43.330Z,6.20
2024-01-05T13:58:10.335Z,6.20
2024-01-05T14:00:37.446Z,6.20
2024-01-05T14:03:05.619Z,6.20
2024-01-05T14:05:32.830Z,6.20
2024-01-05T14:08:00.550Z,6.10
2024-01-05T14:10:27.567Z,6.10
2024-01-05T14:12:56.904Z,6.10
2024-01-05T14:15:25.298Z,6.10
2024-01-05T14:17:52.247Z,6.10
2024-01-05T14:20:19.488Z,6.10
2024-01-05T14:22:46.382Z,6.10
2024-01-05T14:25:13.993Z,6.10
2024-01-05T14:27:41.701Z,6.00
2024-01-05T14:30:09.908Z,6.10
2024-01-05T14:32:37.083Z,6.10
2024-01-05T14:35:06.797Z,6.00
2024-01-05T14:37:34.352Z,6.00
2024-01-05T14:40:01.351Z,6.20
2024-01-05T14:42:28.429Z,6.00
2024-01-05T14:44:55.545Z,6.00
2024-01-05T14:47:22.736Z,6.00
2024-01-05T14:49:51.234Z,6.00
2024-01-05T14:52:18.310Z,6.00
2024-01-05T14:54:45.389Z,6.00
2024-01-05T14:57:17.932Z,6.00
2024-01-05T14:59:44.825Z,6.00
2024-01-05T15:02:11.712Z,6.00
2024-01-05T15:04:38.661Z,6.00
2024-01-05T15:07:05.600Z,6.10
2024-01-05T15:09:32.566Z,6.00
2024-01-05T15:12:00.586Z,6.00
2024-01-05T15:14:28.758Z,6.10
2024-01-05T15:16:55.715Z,6.00
2024-01-05T15:19:22.776Z,6.00
2024-01-05T15:21:49.732Z,6.00
2024-01-05T15:24:16.827Z,6.00
2024-01-05T15:26:45.267Z,6.00
2024-01-05T15:29:15.978Z,6.00
2024-01-05T15:31:43.150Z,6.00
2024-01-05T15:34:10.257Z,6.00
2024-01-05T15:36:37.450Z,6.00
2024-01-05T15:39:07.492Z,6.00
2024-01-05T15:41:35.283Z,6.00
2024-01-05T15:44:02.371Z,6.00
2024-01-05T15:46:29.369Z,6.00
2024-01-05T15:48:56.897Z,6.00
2024-01-05T15:51:26.968Z,6.00
2024-01-05T15:53:57.500Z,6.30
2024-01-05T15:56:28.392Z,6.00
2024-01-05T15:58:56.103Z,6.00
2024-01-05T16:01:23.111Z,6.00
2024-01-05T16:03:50.470Z,6.00
2024-01-05T16:06:17.477Z,6.00
2024-01-05T16:08:44.473Z,6.00
2024-01-05T16:11:11.403Z,6.00
2024-01-05T16:13:38.342Z,6.00
2024-01-05T16:16:21.346Z,6.10
2024-01-05T16:18:50.330Z,6.00
2024-01-05T16:21:28.171Z,6.00
2024-01-05T16:23:56.541Z,6.00
2024-01-05T16:26:24.713Z,6.10
2024-01-05T16:28:52.318Z,6.00
2024-01-05T16:31:21.265Z,6.00
2024-01-05T16:33:49.062Z,6.00
2024-01-05T16:36:17.467Z,6.00
2024-01-05T16:38:45.750Z,6.00
2024-01-05T16:41:14.526Z,6.00
2024-01-05T16:43:41.843Z,6.10
2024-01-05T16:46:09.213Z,6.00
2024-01-05T16:48:36.538Z,6.00
2024-01-05T16:51:03.771Z,6.00
2024-01-05T16:53:30.858Z,6.00
2024-01-05T16:55:58.286Z,6.00
2024-01-05T16:58:25.513Z,6.00
2024-01-05T17:00:52.654Z,6.00
2024-01-05T17:03:19.823Z,6.10
2024-01-05T17:05:48.547Z,6.00
2024-01-05T17:08:15.825Z,6.10
2024-01-05T17:10:42.825Z,6.20
2024-01-05T17:13:09.802Z,6.00
2024-01-05T17:15:36.844Z,6.00
2024-01-05T17:18:04.246Z,6.00
2024-01-05T17:20:31.791Z,6.00
2024-01-05T17:22:59.797Z,6.00
2024-01-05T17:25:28.034Z,6.00
2024-01-05T17:27:54.954Z,6.10
2024-01-05T17:30:22.052Z,6.00
2024-01-05T17:32:50.586Z,6.00
2024-01-05T17:35:17.605Z,6.10
2024-01-05T17:37:44.703Z,6.00
2024-01-05T17:40:11.948Z,6.00
2024-01-05T17:42:39.487Z,6.00
2024-01-05T17:45:09.946Z,6.00
2024-01-05T17:47:36.899Z,6.00
2024-01-05T17:50:03.906Z,6.00
2024-01-05T17:52:30.903Z,6.00
2024-01-05T17:54:57.788Z,6.00
2024-01-05T17:57:25.865Z,6.00
2024-01-05T17:59:53.315Z,6.10
2024-01-05T18:02:20.448Z,6.00
2024-01-05T18:04:50.008Z,6.00
2024-01-05T18:07:18.071Z,6.00
2024-01-05T18:09:45.498Z,6.00
2024-01-05T18:12:12.443Z,6.00
2024-01-05T18:14:39.701Z,6.00
2024-01-05T18:17:06.739Z,6.00
2024-01-05T18:19:34.140Z,6.00
2024-01-05T18:22:01.532Z,6.10
2024-01-05T18:24:28.993Z,6.10
2024-01-05T18:26:55.960Z,6.00
2024-01-05T18:29:28.780Z,6.00
2024-01-05T18:32:00.389Z,6.00
2024-01-05T18:34:49.969Z,6.00
2024-01-05T18:37:17.746Z,6.10
2024-01-05T18:39:47.722Z,5.90
2024-01-05T18:42:14.910Z,5.90
2024-01-05T18:44:43.021Z,5.90
2024-01-05T18:47:10.083Z,5.90
2024-01-05T18:49:37.112Z,5.90
2024-01-05T18:52:04.243Z,6.20
2024-01-05T18:54:31.289Z,5.90
2024-01-05T18:57:01.221Z,5.90
2024-01-05T18:59:28.233Z,5.90
2024-01-05T19:01:55.614Z,5.90
2024-01-05T19:04:22.896Z,5.90
2024-01-05T19:06:50.028Z,5.80
2024-01-05T19:09:18.333Z,6.00
2024-01-05T19:11:47.367Z,5.80
2024-01-05T19:14:17.542Z,5.90
2024-01-05T19:16:44.870Z,5.90
2024-01-05T19:19:15.748Z,6.10
2024-01-05T19:21:53.108Z,5.80
2024-01-05T19:24:24.369Z,5.80
2024-01-05T19:26:52.295Z,5.80
2024-01-05T19:29:19.372Z,5.80
2024-01-05T19:31:46.593Z,5.80
2024-01-05T19:34:13.754Z,5.90
2024-01-05T19:36:45.514Z,5.70
2024-01-05T19:39:13.611Z,5.70
2024-01-05T19:41:45.552Z,5.60
2024-01-05T19:44:15.564Z,5.60
2024-01-05T19:46:42.584Z,5.60
2024-01-05T19:49:09.706Z,5.50
2024-01-05T19:51:44.800Z,5.60
2024-01-05T19:54:12.794Z,5.80
2024-01-05T19:56:39.726Z,5.50
2024-01-05T19:59:06.676Z,5.40
2024-01-05T20:01:33.785Z,5.70
2024-01-05T20:04:00.817Z,5.40
2024-01-05T20:06:33.525Z,5.60
2024-01-05T20:09:00.549Z,5.30
2024-01-05T20:11:27.443Z,5.30
2024-01-05T20:13:54.330Z,5.30
2024-01-05T20:16:21.183Z,5.30
2024-01-05T20:18:49.423Z,5.30
2024-01-05T20:21:16.687Z,5.20
2024-01-05T20:23:43.726Z,5.20
2024-01-05T20:26:21.127Z,5.40
2024-01-05T20:28:52.626Z,5.20
2024-01-05T20:31:20.381Z,5.20
2024-01-05T20:33:47.938Z,5.10
2024-01-05T20:36:17.291Z,5.10
2024-01-05T20:38:47.665Z,5.20
2024-01-05T20:41:14.734Z,5.10
2024-01-05T20:43:41.602Z,5.10
2024-01-05T20:46:08.954Z,5.40
2024-01-05T20:48:37.050Z,5.00
2024-01-05T20:51:04.240Z,5.00
2024-01-05T20:53:31.660Z,5.00
2024-01-05T20:55:58.555Z,5.00
2024-01-05T20:58:25.916Z,5.00
2024-01-05T21:00:53.134Z,4.90
2024-01-05T21:03:20.669Z,4.90
2024-01-05T21:05:50.441Z,4.90
2024-01-05T21:08:17.348Z,5.30
2024-01-05T21:10:44.330Z,4.90
2024-01-05T21:13:11.220Z,4.90
2024-01-05T21:15:38.226Z,4.90
2024-01-05T21:18:05.740Z,4.90
2024-01-05T21:20:33.235Z,4.80
2024-01-05T21:23:01.687Z,4.70
2024-01-05T21:25:30.642Z,4.70
2024-01-05T21:27:57.780Z,4.70
2024-01-05T21:30:25.124Z,4.70
2024-01-05T21:32:53.003Z,4.70
2024-01-05T21:35:20.081Z,4.60
2024-01-05T21:37:46.926Z,4.60
2024-01-05T21:40:14.042Z,4.30
2024-01-05T21:42:40.989Z,4.60
2024-01-05T21:45:08.466Z,4.60
2024-01-05T21:47:35.764Z,4.50
2024-01-05T21:50:02.755Z,4.40
2024-01-05T21:52:29.736Z,4.40
2024-01-05T21:54:56.666Z,4.30
2024-01-05T21:57:23.662Z,4.30
2024-01-05T21:59:51.255Z,4.60
2024-01-05T22:02:18.172Z,4.30
2024-01-05T22:04:45.060Z,4.30
2024-01-05T22:07:12.140Z,4.60
2024-01-05T22:09:40.082Z,4.20
2024-01-05T22:12:08.675Z,4.40
2024-01-05T22:14:35.752Z,4.20
2024-01-05T22:17:03.763Z,4.20
2024-01-05T22:19:31.098Z,4.10
2024-01-05T22:21:58.160Z,4.10
2024-01-05T22:24:27.225Z,4.10
2024-01-05T22:26:54.106Z,4.00
2024-01-05T22:29:20.979Z,4.00
2024-01-05T22:31:48.131Z,4.00
2024-01-05T22:34:15.421Z,4.00
2024-01-05T22:36:42.508Z,4.10
2024-01-05T22:39:12.743Z,3.90
2024-01-05T22:41:39.703Z,3.80
2024-01-05T22:44:06.667Z,3.80
2024-01-05T22:46:33.815Z,3.90
2024-01-05T22:49:00.943Z,3.80
2024-01-05T22:51:32.019Z,3.80
2024-01-05T22:53:59.164Z,4.20
2024-01-05T22:56:26.073Z,3.70
2024-01-05T22:58:52.999Z,3.70
2024-01-05T23:01:24.119Z,3.70
2024-01-05T23:03:52.808Z,3.70
2024-01-05T23:06:20.582Z,3.90
2024-01-05T23:08:47.689Z,3.60
2024-01-05T23:11:15.011Z,3.60
2024-01-05T23:13:42.017Z,3.60
2024-01-05T23:16:09.167Z,3.60
2024-01-05T23:18:36.429Z,3.50
2024-01-05T23:21:03.788Z,3.60
2024-01-05T23:23:30.994Z,3.40
2024-01-05T23:25:57.872Z,3.50
2024-01-05T23:28:26.092Z,3.50
2024-01-05T23:30:53.319Z,3.50
2024-01-05T23:33:20.694Z,3.40
2024-01-05T23:35:50.881Z,3.40
2024-01-05T23:38:18.027Z,3.40
2024-01-05T23:40:45.022Z,3.40
2024-01-05T23:43:12.021Z,3.40
2024-01-05T23:45:39.042Z,3.30
2024-01-05T23:48:06.340Z,3.30
2024-01-05T23:50:33.392Z,3.30
2024-01-05T23:53:03.083Z,3.40
2024-01-05T23:55:31.647Z,3.30
2024-01-05T23:57:58.643Z,3.30
